sensor_id;sensor_type;location;lat;lon;timestamp;P1;P2;P0
79689;PMS5003;69156;55.932;-3.238;2023-04-23T00:02:09;18;17;
79689;PMS5003;69156;55.932;-3.238;2023-04-23T00:04:34;19;18;
79689;PMS5003;69156;55.932;-3.238;2023-04-23T00:07:00;15;15;
79689;PMS5003;69156;55.932;-3.238;2023-04-23T00:09:25;19;19;
79689;PMS5003;69156;55.932;-3.238;2023-04-23T00:11:51;23;21;
79689;PMS5003;69156;55.932;-3.238;2023-04-23T00:14:17;19;19;
79689;PMS5003;69156;55.932;-3.238;2023-04-23T00:16:43;19;18;
79689;PMS5003;69156;55.932;-3.238;2023-04-23T00:19:09;19;19;
79689;PMS5003;69156;55.932;-3.238;2023-04-23T00:21:34;18;18;
79689;PMS5003;69156;55.932;-3.238;2023-04-23T00:24:00;18;18;
79689;PMS5003;69156;55.932;-3.238;2023-04-23T00:26:26;18;18;
79689;PMS5003;69156;55.932;-3.238;2023-04-23T00:28:52;16;15;
79689;PMS5003;69156;55.932;-3.238;2023-04-23T00:31:18;16;16;
79689;PMS5003;69156;55.932;-3.238;2023-04-23T00:33:43;19;18;
79689;PMS5003;69156;55.932;-3.238;2023-04-23T00:36:08;19;18;
79689;PMS5003;69156;55.932;-3.238;2023-04-23T00:38:34;21;20;
79689;PMS5003;69156;55.932;-3.238;2023-04-23T00:40:59;16;16;
79689;PMS5003;69156;55.932;-3.238;2023-04-23T00:43:24;19;18;
79689;PMS5003;69156;55.932;-3.238;2023-04-23T00:45:49;17;17;
79689;PMS5003;69156;55.932;-3.238;2023-04-23T00:48:15;19;19;
79689;PMS5003;69156;55.932;-3.238;2023-04-23T00:50:41;18;18;
79689;PMS5003;69156;55.932;-3.238;2023-04-23T00:53:06;19;19;
79689;PMS5003;69156;55.932;-3.238;2023-04-23T00:55:32;17;17;
79689;PMS5003;69156;55.932;-3.238;2023-04-23T00:57:57;19;19;
79689;PMS5003;69156;55.932;-3.238;2023-04-23T01:00:22;18;18;
79689;PMS5003;69156;55.932;-3.238;2023-04-23T01:02:48;19;18;
79689;PMS5003;69156;55.932;-3.238;2023-04-23T01:05:13;23;23;
79689;PMS5003;69156;55.932;-3.238;2023-04-23T01:07:39;17;17;
79689;PMS5003;69156;55.932;-3.238;2023-04-23T01:10:05;21;21;
79689;PMS5003;69156;55.932;-3.238;2023-04-23T01:12:30;19;18;
79689;PMS5003;69156;55.932;-3.238;2023-04-23T01:14:56;21;21;
79689;PMS5003;69156;55.932;-3.238;2023-04-23T01:17:22;21;21;
79689;PMS5003;69156;55.932;-3.238;2023-04-23T01:19:47;18;18;
79689;PMS5003;69156;55.932;-3.238;2023-04-23T01:22:13;17;17;
79689;PMS5003;69156;55.932;-3.238;2023-04-23T01:24:38;19;18;
79689;PMS5003;69156;55.932;-3.238;2023-04-23T01:27:03;23;21;
79689;PMS5003;69156;55.932;-3.238;2023-04-23T01:29:29;19;18;
79689;PMS5003;69156;55.932;-3.238;2023-04-23T01:31:55;18;17;
79689;PMS5003;69156;55.932;-3.238;2023-04-23T01:34:21;20;19;
79689;PMS5003;69156;55.932;-3.238;2023-04-23T01:36:46;19;19;
79689;PMS5003;69156;55.932;-3.238;2023-04-23T01:39:11;20;20;
79689;PMS5003;69156;55.932;-3.238;2023-04-23T01:41:36;16;16;
79689;PMS5003;69156;55.932;-3.238;2023-04-23T01:44:03;19;18;
79689;PMS5003;69156;55.932;-3.238;2023-04-23T01:46:28;20;19;
79689;PMS5003;69156;55.932;-3.238;2023-04-23T01:48:54;20;19;
79689;PMS5003;69156;55.932;-3.238;2023-04-23T01:51:20;18;18;
79689;PMS5003;69156;55.932;-3.238;2023-04-23T01:53:45;18;18;
79689;PMS5003;69156;55.932;-3.238;2023-04-23T01:56:11;19;18;
79689;PMS5003;69156;55.932;-3.238;2023-04-23T01:58:36;18;18;
79689;PMS5003;69156;55.932;-3.238;2023-04-23T02:01:01;18;17;
79689;PMS5003;69156;55.932;-3.238;2023-04-23T02:03:27;17;16;
79689;PMS5003;69156;55.932;-3.238;2023-04-23T02:05:53;18;18;
79689;PMS5003;69156;55.932;-3.238;2023-04-23T02:08:19;22;21;
79689;PMS5003;69156;55.932;-3.238;2023-04-23T02:10:44;19;18;
79689;PMS5003;69156;55.932;-3.238;2023-04-23T02:13:09;19;19;
79689;PMS5003;69156;55.932;-3.238;2023-04-23T02:15:35;21;19;
79689;PMS5003;69156;55.932;-3.238;2023-04-23T02:18:00;24;23;
79689;PMS5003;69156;55.932;-3.238;2023-04-23T02:20:26;19;19;
79689;PMS5003;69156;55.932;-3.238;2023-04-23T02:22:51;22;21;
79689;PMS5003;69156;55.932;-3.238;2023-04-23T02:25:17;21;21;
79689;PMS5003;69156;55.932;-3.238;2023-04-23T02:27:41;18;18;
79689;PMS5003;69156;55.932;-3.238;2023-04-23T02:30:07;18;18;
79689;PMS5003;69156;55.932;-3.238;2023-04-23T02:32:32;22;21;
79689;PMS5003;69156;55.932;-3.238;2023-04-23T02:34:58;20;18;
79689;PMS5003;69156;55.932;-3.238;2023-04-23T02:37:23;21;21;
79689;PMS5003;69156;55.932;-3.238;2023-04-23T02:39:48;20;18;
79689;PMS5003;69156;55.932;-3.238;2023-04-23T02:42:13;24;23;
79689;PMS5003;69156;55.932;-3.238;2023-04-23T02:44:39;21;21;
79689;PMS5003;69156;55.932;-3.238;2023-04-23T02:47:05;23;22;
79689;PMS5003;69156;55.932;-3.238;2023-04-23T02:49:30;21;21;
79689;PMS5003;69156;55.932;-3.238;2023-04-23T02:51:55;20;20;
79689;PMS5003;69156;55.932;-3.238;2023-04-23T02:54:20;21;21;
79689;PMS5003;69156;55.932;-3.238;2023-04-23T02:56:46;21;21;
79689;PMS5003;69156;55.932;-3.238;2023-04-23T02:59:12;20;20;
79689;PMS5003;69156;55.932;-3.238;2023-04-23T03:01:37;23;22;
79689;PMS5003;69156;55.932;-3.238;2023-04-23T03:04:02;18;18;
79689;PMS5003;69156;55.932;-3.238;2023-04-23T03:06:28;23;22;
79689;PMS5003;69156;55.932;-3.238;2023-04-23T03:08:53;24;24;
79689;PMS5003;69156;55.932;-3.238;2023-04-23T03:11:18;23;21;
79689;PMS5003;69156;55.932;-3.238;2023-04-23T03:13:44;21;18;
79689;PMS5003;69156;55.932;-3.238;2023-04-23T03:16:09;23;22;
79689;PMS5003;69156;55.932;-3.238;2023-04-23T03:18:34;23;22;
79689;PMS5003;69156;55.932;-3.238;2023-04-23T03:21:00;24;24;
79689;PMS5003;69156;55.932;-3.238;2023-04-23T03:23:26;23;22;
79689;PMS5003;69156;55.932;-3.238;2023-04-23T03:25:51;21;21;
79689;PMS5003;69156;55.932;-3.238;2023-04-23T03:28:17;22;22;
79689;PMS5003;69156;55.932;-3.238;2023-04-23T03:30:43;23;23;
79689;PMS5003;69156;55.932;-3.238;2023-04-23T03:33:08;21;21;
79689;PMS5003;69156;55.932;-3.238;2023-04-23T03:35:33;22;22;
79689;PMS5003;69156;55.932;-3.238;2023-04-23T03:37:59;21;21;
79689;PMS5003;69156;55.932;-3.238;2023-04-23T03:40:25;22;19;
79689;PMS5003;69156;55.932;-3.238;2023-04-23T03:42:50;22;22;
79689;PMS5003;69156;55.932;-3.238;2023-04-23T03:45:16;22;21;
79689;PMS5003;69156;55.932;-3.238;2023-04-23T03:47:41;22;22;
79689;PMS5003;69156;55.932;-3.238;2023-04-23T03:50:08;21;21;
79689;PMS5003;69156;55.932;-3.238;2023-04-23T03:52:33;24;21;
79689;PMS5003;69156;55.932;-3.238;2023-04-23T03:54:58;21;21;
79689;PMS5003;69156;55.932;-3.238;2023-04-23T03:57:24;19;19;
79689;PMS5003;69156;55.932;-3.238;2023-04-23T03:59:50;25;25;
79689;PMS5003;69156;55.932;-3.238;2023-04-23T04:02:16;24;23;
79689;PMS5003;69156;55.932;-3.238;2023-04-23T04:04:40;21;21;
79689;PMS5003;69156;55.932;-3.238;2023-04-23T04:07:06;21;21;
79689;PMS5003;69156;55.932;-3.238;2023-04-23T04:09:32;23;23;
79689;PMS5003;69156;55.932;-3.238;2023-04-23T04:11:58;21;21;
79689;PMS5003;69156;55.932;-3.238;2023-04-23T04:14:23;19;19;
79689;PMS5003;69156;55.932;-3.238;2023-04-23T04:16:50;21;21;
79689;PMS5003;69156;55.932;-3.238;2023-04-23T04:19:15;21;21;
79689;PMS5003;69156;55.932;-3.238;2023-04-23T04:21:40;23;23;
79689;PMS5003;69156;55.932;-3.238;2023-04-23T04:24:06;18;17;
79689;PMS5003;69156;55.932;-3.238;2023-04-23T04:26:31;21;19;
79689;PMS5003;69156;55.932;-3.238;2023-04-23T04:28:57;22;21;
79689;PMS5003;69156;55.932;-3.238;2023-04-23T04:31:22;21;21;
79689;PMS5003;69156;55.932;-3.238;2023-04-23T04:33:48;17;17;
79689;PMS5003;69156;55.932;-3.238;2023-04-23T04:36:13;21;21;
79689;PMS5003;69156;55.932;-3.238;2023-04-23T04:38:39;20;20;
79689;PMS5003;69156;55.932;-3.238;2023-04-23T04:41:05;23;22;
79689;PMS5003;69156;55.932;-3.238;2023-04-23T04:43:31;21;21;
79689;PMS5003;69156;55.932;-3.238;2023-04-23T04:45:56;22;22;
79689;PMS5003;69156;55.932;-3.238;2023-04-23T04:48:21;24;23;
79689;PMS5003;69156;55.932;-3.238;2023-04-23T04:50:46;22;21;
79689;PMS5003;69156;55.932;-3.238;2023-04-23T04:53:12;23;22;
79689;PMS5003;69156;55.932;-3.238;2023-04-23T04:55:37;22;21;
79689;PMS5003;69156;55.932;-3.238;2023-04-23T04:58:02;26;25;
79689;PMS5003;69156;55.932;-3.238;2023-04-23T05:00:28;22;22;
79689;PMS5003;69156;55.932;-3.238;2023-04-23T05:02:54;24;24;
79689;PMS5003;69156;55.932;-3.238;2023-04-23T05:05:20;24;24;
79689;PMS5003;69156;55.932;-3.238;2023-04-23T05:07:46;22;22;
79689;PMS5003;69156;55.932;-3.238;2023-04-23T05:10:12;23;23;
79689;PMS5003;69156;55.932;-3.238;2023-04-23T05:12:37;21;20;
79689;PMS5003;69156;55.932;-3.238;2023-04-23T05:15:02;25;24;
79689;PMS5003;69156;55.932;-3.238;2023-04-23T05:17:28;21;21;
79689;PMS5003;69156;55.932;-3.238;2023-04-23T05:19:53;22;21;
79689;PMS5003;69156;55.932;-3.238;2023-04-23T05:22:19;21;21;
79689;PMS5003;69156;55.932;-3.238;2023-04-23T05:24:45;23;22;
79689;PMS5003;69156;55.932;-3.238;2023-04-23T05:27:10;25;25;
79689;PMS5003;69156;55.932;-3.238;2023-04-23T05:29:36;21;21;
79689;PMS5003;69156;55.932;-3.238;2023-04-23T05:32:01;26;26;
79689;PMS5003;69156;55.932;-3.238;2023-04-23T05:34:27;24;23;
79689;PMS5003;69156;55.932;-3.238;2023-04-23T05:36:52;23;23;
79689;PMS5003;69156;55.932;-3.238;2023-04-23T05:39:17;22;22;
79689;PMS5003;69156;55.932;-3.238;2023-04-23T05:41:43;25;24;
79689;PMS5003;69156;55.932;-3.238;2023-04-23T05:44:08;22;22;
79689;PMS5003;69156;55.932;-3.238;2023-04-23T05:46:34;25;24;
79689;PMS5003;69156;55.932;-3.238;2023-04-23T05:48:59;20;20;
79689;PMS5003;69156;55.932;-3.238;2023-04-23T05:51:26;21;21;
79689;PMS5003;69156;55.932;-3.238;2023-04-23T05:53:52;21;21;
79689;PMS5003;69156;55.932;-3.238;2023-04-23T05:56:18;23;23;
79689;PMS5003;69156;55.932;-3.238;2023-04-23T05:58:43;25;24;
79689;PMS5003;69156;55.932;-3.238;2023-04-23T06:01:08;24;24;
79689;PMS5003;69156;55.932;-3.238;2023-04-23T06:03:35;23;23;
79689;PMS5003;69156;55.932;-3.238;2023-04-23T06:06:01;23;20;
79689;PMS5003;69156;55.932;-3.238;2023-04-23T06:08:27;23;22;
79689;PMS5003;69156;55.932;-3.238;2023-04-23T06:10:52;18;18;
79689;PMS5003;69156;55.932;-3.238;2023-04-23T06:13:17;22;21;
79689;PMS5003;69156;55.932;-3.238;2023-04-23T06:15:42;16;16;
79689;PMS5003;69156;55.932;-3.238;2023-04-23T06:18:08;19;19;
79689;PMS5003;69156;55.932;-3.238;2023-04-23T06:20:33;20;19;
79689;PMS5003;69156;55.932;-3.238;2023-04-23T06:22:59;16;15;
79689;PMS5003;69156;55.932;-3.238;2023-04-23T06:25:24;16;15;
79689;PMS5003;69156;55.932;-3.238;2023-04-23T06:27:50;18;18;
79689;PMS5003;69156;55.932;-3.238;2023-04-23T06:30:15;22;21;
79689;PMS5003;69156;55.932;-3.238;2023-04-23T06:32:41;19;18;
79689;PMS5003;69156;55.932;-3.238;2023-04-23T06:35:06;18;18;
79689;PMS5003;69156;55.932;-3.238;2023-04-23T06:37:32;18;18;
79689;PMS5003;69156;55.932;-3.238;2023-04-23T06:39:58;18;18;
79689;PMS5003;69156;55.932;-3.238;2023-04-23T06:42:23;16;16;
79689;PMS5003;69156;55.932;-3.238;2023-04-23T06:44:49;14;14;
79689;PMS5003;69156;55.932;-3.238;2023-04-23T06:47:15;16;16;
79689;PMS5003;69156;55.932;-3.238;2023-04-23T06:49:41;18;17;
79689;PMS5003;69156;55.932;-3.238;2023-04-23T06:52:07;17;16;
79689;PMS5003;69156;55.932;-3.238;2023-04-23T06:54:32;16;16;
79689;PMS5003;69156;55.932;-3.238;2023-04-23T06:56:57;15;14;
79689;PMS5003;69156;55.932;-3.238;2023-04-23T06:59:22;16;16;
79689;PMS5003;69156;55.932;-3.238;2023-04-23T07:01:48;18;18;
79689;PMS5003;69156;55.932;-3.238;2023-04-23T07:04:13;15;15;
79689;PMS5003;69156;55.932;-3.238;2023-04-23T07:06:39;16;16;
79689;PMS5003;69156;55.932;-3.238;2023-04-23T07:09:07;16;16;
79689;PMS5003;69156;55.932;-3.238;2023-04-23T07:11:30;15;15;
79689;PMS5003;69156;55.932;-3.238;2023-04-23T07:13:55;15;15;
79689;PMS5003;69156;55.932;-3.238;2023-04-23T07:16:20;12;12;
79689;PMS5003;69156;55.932;-3.238;2023-04-23T07:18:46;14;13;
79689;PMS5003;69156;55.932;-3.238;2023-04-23T07:21:11;14;13;
79689;PMS5003;69156;55.932;-3.238;2023-04-23T07:23:37;11;11;
79689;PMS5003;69156;55.932;-3.238;2023-04-23T07:26:02;13;13;
79689;PMS5003;69156;55.932;-3.238;2023-04-23T07:28:27;15;14;
79689;PMS5003;69156;55.932;-3.238;2023-04-23T07:30:52;15;15;
79689;PMS5003;69156;55.932;-3.238;2023-04-23T07:33:21;14;14;
79689;PMS5003;69156;55.932;-3.238;2023-04-23T07:35:46;12;12;
79689;PMS5003;69156;55.932;-3.238;2023-04-23T07:38:11;11;10;
79689;PMS5003;69156;55.932;-3.238;2023-04-23T07:40:37;15;14;
79689;PMS5003;69156;55.932;-3.238;2023-04-23T07:43:02;15;15;
79689;PMS5003;69156;55.932;-3.238;2023-04-23T07:49:17;18;16;
79689;PMS5003;69156;55.932;-3.238;2023-04-23T07:51:47;19;16;
79689;PMS5003;69156;55.932;-3.238;2023-04-23T07:54:13;17;17;
79689;PMS5003;69156;55.932;-3.238;2023-04-23T07:56:39;14;14;
79689;PMS5003;69156;55.932;-3.238;2023-04-23T07:59:05;14;13;
79689;PMS5003;69156;55.932;-3.238;2023-04-23T08:01:31;15;15;
79689;PMS5003;69156;55.932;-3.238;2023-04-23T08:03:56;18;16;
79689;PMS5003;69156;55.932;-3.238;2023-04-23T08:06:21;12;12;
79689;PMS5003;69156;55.932;-3.238;2023-04-23T08:08:47;12;12;
79689;PMS5003;69156;55.932;-3.238;2023-04-23T08:11:12;12;11;
79689;PMS5003;69156;55.932;-3.238;2023-04-23T08:13:38;12;12;
79689;PMS5003;69156;55.932;-3.238;2023-04-23T08:16:03;14;13;
79689;PMS5003;69156;55.932;-3.238;2023-04-23T08:18:28;13;13;
79689;PMS5003;69156;55.932;-3.238;2023-04-23T08:20:54;14;13;
79689;PMS5003;69156;55.932;-3.238;2023-04-23T08:23:19;14;14;
79689;PMS5003;69156;55.932;-3.238;2023-04-23T08:25:44;15;14;
79689;PMS5003;69156;55.932;-3.238;2023-04-23T08:28:10;16;16;
79689;PMS5003;69156;55.932;-3.238;2023-04-23T08:30:35;13;13;
79689;PMS5003;69156;55.932;-3.238;2023-04-23T08:33:01;13;13;
79689;PMS5003;69156;55.932;-3.238;2023-04-23T08:35:26;11;11;
79689;PMS5003;69156;55.932;-3.238;2023-04-23T08:37:52;13;13;
79689;PMS5003;69156;55.932;-3.238;2023-04-23T08:40:17;11;10;
79689;PMS5003;69156;55.932;-3.238;2023-04-23T08:42:44;11;11;
79689;PMS5003;69156;55.932;-3.238;2023-04-23T08:45:08;13;12;
79689;PMS5003;69156;55.932;-3.238;2023-04-23T08:47:34;13;13;
79689;PMS5003;69156;55.932;-3.238;2023-04-23T08:50:00;12;12;
79689;PMS5003;69156;55.932;-3.238;2023-04-23T08:52:25;13;12;
79689;PMS5003;69156;55.932;-3.238;2023-04-23T08:54:51;15;15;
79689;PMS5003;69156;55.932;-3.238;2023-04-23T08:57:16;15;14;
79689;PMS5003;69156;55.932;-3.238;2023-04-23T08:59:41;13;13;
79689;PMS5003;69156;55.932;-3.238;2023-04-23T09:02:07;13;13;
79689;PMS5003;69156;55.932;-3.238;2023-04-23T09:04:38;15;15;
79689;PMS5003;69156;55.932;-3.238;2023-04-23T09:06:57;11;11;
79689;PMS5003;69156;55.932;-3.238;2023-04-23T09:09:31;13;13;
79689;PMS5003;69156;55.932;-3.238;2023-04-23T09:11:49;11;11;
79689;PMS5003;69156;55.932;-3.238;2023-04-23T09:14:14;11;11;
79689;PMS5003;69156;55.932;-3.238;2023-04-23T09:16:39;10;10;
79689;PMS5003;69156;55.932;-3.238;2023-04-23T09:19:05;13;12;
79689;PMS5003;69156;55.932;-3.238;2023-04-23T09:21:30;12;12;
79689;PMS5003;69156;55.932;-3.238;2023-04-23T09:23:56;9;9;
79689;PMS5003;69156;55.932;-3.238;2023-04-23T09:26:21;12;12;
79689;PMS5003;69156;55.932;-3.238;2023-04-23T09:28:47;12;12;
79689;PMS5003;69156;55.932;-3.238;2023-04-23T09:31:12;9;9;
79689;PMS5003;69156;55.932;-3.238;2023-04-23T09:33:37;10;10;
79689;PMS5003;69156;55.932;-3.238;2023-04-23T09:36:04;13;13;
79689;PMS5003;69156;55.932;-3.238;2023-04-23T09:38:27;10;10;
79689;PMS5003;69156;55.932;-3.238;2023-04-23T09:40:52;11;11;
79689;PMS5003;69156;55.932;-3.238;2023-04-23T09:43:18;10;8;
79689;PMS5003;69156;55.932;-3.238;2023-04-23T09:45:47;7;7;
79689;PMS5003;69156;55.932;-3.238;2023-04-23T09:48:08;12;11;
79689;PMS5003;69156;55.932;-3.238;2023-04-23T09:50:35;8;8;
79689;PMS5003;69156;55.932;-3.238;2023-04-23T09:53:01;11;10;
79689;PMS5003;69156;55.932;-3.238;2023-04-23T09:55:26;12;11;
79689;PMS5003;69156;55.932;-3.238;2023-04-23T09:57:51;11;11;
79689;PMS5003;69156;55.932;-3.238;2023-04-23T10:00:17;10;10;
79689;PMS5003;69156;55.932;-3.238;2023-04-23T10:02:44;10;8;
79689;PMS5003;69156;55.932;-3.238;2023-04-23T10:05:13;11;10;
79689;PMS5003;69156;55.932;-3.238;2023-04-23T10:07:32;11;11;
79689;PMS5003;69156;55.932;-3.238;2023-04-23T10:09:58;11;11;
79689;PMS5003;69156;55.932;-3.238;2023-04-23T10:12:23;11;11;
79689;PMS5003;69156;55.932;-3.238;2023-04-23T10:15:13;9;9;
79689;PMS5003;69156;55.932;-3.238;2023-04-23T10:17:25;11;11;
79689;PMS5003;69156;55.932;-3.238;2023-04-23T10:19:53;8;8;
79689;PMS5003;69156;55.932;-3.238;2023-04-23T10:22:21;11;11;
79689;PMS5003;69156;55.932;-3.238;2023-04-23T10:25:10;8;8;
79689;PMS5003;69156;55.932;-3.238;2023-04-23T10:28:53;11;11;
79689;PMS5003;69156;55.932;-3.238;2023-04-23T10:31:18;12;12;
79689;PMS5003;69156;55.932;-3.238;2023-04-23T10:33:43;9;9;
79689;PMS5003;69156;55.932;-3.238;2023-04-23T10:36:08;7;7;
79689;PMS5003;69156;55.932;-3.238;2023-04-23T10:38:34;12;12;
79689;PMS5003;69156;55.932;-3.238;2023-04-23T10:40:59;8;8;
79689;PMS5003;69156;55.932;-3.238;2023-04-23T10:43:24;8;8;
79689;PMS5003;69156;55.932;-3.238;2023-04-23T10:45:50;12;12;
79689;PMS5003;69156;55.932;-3.238;2023-04-23T10:48:15;10;8;
79689;PMS5003;69156;55.932;-3.238;2023-04-23T10:50:41;10;10;
79689;PMS5003;69156;55.932;-3.238;2023-04-23T10:53:06;13;13;
79689;PMS5003;69156;55.932;-3.238;2023-04-23T10:55:32;11;10;
79689;PMS5003;69156;55.932;-3.238;2023-04-23T10:57:58;15;13;
79689;PMS5003;69156;55.932;-3.238;2023-04-23T11:00:22;11;11;
79689;PMS5003;69156;55.932;-3.238;2023-04-23T11:02:47;11;11;
79689;PMS5003;69156;55.932;-3.238;2023-04-23T11:05:13;10;10;
79689;PMS5003;69156;55.932;-3.238;2023-04-23T11:07:39;11;11;
79689;PMS5003;69156;55.932;-3.238;2023-04-23T11:10:10;10;10;
79689;PMS5003;69156;55.932;-3.238;2023-04-23T11:12:30;8;8;
79689;PMS5003;69156;55.932;-3.238;2023-04-23T11:14:55;11;11;
79689;PMS5003;69156;55.932;-3.238;2023-04-23T11:17:21;10;10;
79689;PMS5003;69156;55.932;-3.238;2023-04-23T11:20:05;11;10;
79689;PMS5003;69156;55.932;-3.238;2023-04-23T11:22:12;8;8;
79689;PMS5003;69156;55.932;-3.238;2023-04-23T11:24:37;12;12;
79689;PMS5003;69156;55.932;-3.238;2023-04-23T11:27:03;11;10;
79689;PMS5003;69156;55.932;-3.238;2023-04-23T11:29:28;9;9;
79689;PMS5003;69156;55.932;-3.238;2023-04-23T11:31:54;11;10;
79689;PMS5003;69156;55.932;-3.238;2023-04-23T11:35:21;11;11;
79689;PMS5003;69156;55.932;-3.238;2023-04-23T11:37:02;11;11;
79689;PMS5003;69156;55.932;-3.238;2023-04-23T11:39:44;8;8;
79689;PMS5003;69156;55.932;-3.238;2023-04-23T11:58:39;13;13;
79689;PMS5003;69156;55.932;-3.238;2023-04-23T12:01:09;11;11;
79689;PMS5003;69156;55.932;-3.238;2023-04-23T12:06:06;13;12;
79689;PMS5003;69156;55.932;-3.238;2023-04-23T12:08:37;12;12;
79689;PMS5003;69156;55.932;-3.238;2023-04-23T12:11:02;12;12;
79689;PMS5003;69156;55.932;-3.238;2023-04-23T12:13:29;9;9;
79689;PMS5003;69156;55.932;-3.238;2023-04-23T12:15:55;12;10;
79689;PMS5003;69156;55.932;-3.238;2023-04-23T12:18:20;12;12;
79689;PMS5003;69156;55.932;-3.238;2023-04-23T12:20:45;9;9;
79689;PMS5003;69156;55.932;-3.238;2023-04-23T12:23:10;12;11;
79689;PMS5003;69156;55.932;-3.238;2023-04-23T12:25:35;8;8;
79689;PMS5003;69156;55.932;-3.238;2023-04-23T12:28:01;10;10;
79689;PMS5003;69156;55.932;-3.238;2023-04-23T12:30:27;9;9;
79689;PMS5003;69156;55.932;-3.238;2023-04-23T12:32:52;10;9;
79689;PMS5003;69156;55.932;-3.238;2023-04-23T12:35:17;15;14;
79689;PMS5003;69156;55.932;-3.238;2023-04-23T12:37:43;8;7;
79689;PMS5003;69156;55.932;-3.238;2023-04-23T12:40:09;10;10;
79689;PMS5003;69156;55.932;-3.238;2023-04-23T12:42:34;10;10;
79689;PMS5003;69156;55.932;-3.238;2023-04-23T12:45:08;10;9;
79689;PMS5003;69156;55.932;-3.238;2023-04-23T12:47:25;10;10;
79689;PMS5003;69156;55.932;-3.238;2023-04-23T13:07:55;11;10;
79689;PMS5003;69156;55.932;-3.238;2023-04-23T13:10:20;8;8;
79689;PMS5003;69156;55.932;-3.238;2023-04-23T13:12:46;8;7;
79689;PMS5003;69156;55.932;-3.238;2023-04-23T13:15:11;11;11;
79689;PMS5003;69156;55.932;-3.238;2023-04-23T13:17:36;11;10;
79689;PMS5003;69156;55.932;-3.238;2023-04-23T13:20:02;9;9;
79689;PMS5003;69156;55.932;-3.238;2023-04-23T13:22:27;9;9;
79689;PMS5003;69156;55.932;-3.238;2023-04-23T13:24:52;11;11;
79689;PMS5003;69156;55.932;-3.238;2023-04-23T13:27:17;8;7;
79689;PMS5003;69156;55.932;-3.238;2023-04-23T13:29:43;9;9;
79689;PMS5003;69156;55.932;-3.238;2023-04-23T13:32:08;11;11;
79689;PMS5003;69156;55.932;-3.238;2023-04-23T13:34:33;11;10;
79689;PMS5003;69156;55.932;-3.238;2023-04-23T13:36:58;8;8;
79689;PMS5003;69156;55.932;-3.238;2023-04-23T13:39:23;10;10;
79689;PMS5003;69156;55.932;-3.238;2023-04-23T13:41:49;10;10;
79689;PMS5003;69156;55.932;-3.238;2023-04-23T13:44:14;11;10;
79689;PMS5003;69156;55.932;-3.238;2023-04-23T13:46:40;8;8;
79689;PMS5003;69156;55.932;-3.238;2023-04-23T13:49:05;9;9;
79689;PMS5003;69156;55.932;-3.238;2023-04-23T13:51:31;8;8;
79689;PMS5003;69156;55.932;-3.238;2023-04-23T13:53:56;8;8;
79689;PMS5003;69156;55.932;-3.238;2023-04-23T13:56:21;9;8;
79689;PMS5003;69156;55.932;-3.238;2023-04-23T13:58:47;12;8;
79689;PMS5003;69156;55.932;-3.238;2023-04-23T14:01:12;7;7;
79689;PMS5003;69156;55.932;-3.238;2023-04-23T14:03:37;11;9;
79689;PMS5003;69156;55.932;-3.238;2023-04-23T14:06:03;9;9;
79689;PMS5003;69156;55.932;-3.238;2023-04-23T14:08:28;15;13;
79689;PMS5003;69156;55.932;-3.238;2023-04-23T14:10:53;12;12;
79689;PMS5003;69156;55.932;-3.238;2023-04-23T14:13:19;8;8;
79689;PMS5003;69156;55.932;-3.238;2023-04-23T14:15:44;8;8;
79689;PMS5003;69156;55.932;-3.238;2023-04-23T14:18:09;10;9;
79689;PMS5003;69156;55.932;-3.238;2023-04-23T14:20:35;7;6;
79689;PMS5003;69156;55.932;-3.238;2023-04-23T14:23:01;8;8;
79689;PMS5003;69156;55.932;-3.238;2023-04-23T14:25:29;8;8;
79689;PMS5003;69156;55.932;-3.238;2023-04-23T14:27:51;8;7;
79689;PMS5003;69156;55.932;-3.238;2023-04-23T14:30:18;9;9;
79689;PMS5003;69156;55.932;-3.238;2023-04-23T14:32:41;9;9;
79689;PMS5003;69156;55.932;-3.238;2023-04-23T14:35:07;10;9;
79689;PMS5003;69156;55.932;-3.238;2023-04-23T14:37:32;9;9;
79689;PMS5003;69156;55.932;-3.238;2023-04-23T14:39:58;8;7;
79689;PMS5003;69156;55.932;-3.238;2023-04-23T14:42:23;10;10;
79689;PMS5003;69156;55.932;-3.238;2023-04-23T14:44:49;7;7;
79689;PMS5003;69156;55.932;-3.238;2023-04-23T14:47:14;7;7;
79689;PMS5003;69156;55.932;-3.238;2023-04-23T14:49:39;8;8;
79689;PMS5003;69156;55.932;-3.238;2023-04-23T14:52:05;10;10;
79689;PMS5003;69156;55.932;-3.238;2023-04-23T14:54:30;11;11;
79689;PMS5003;69156;55.932;-3.238;2023-04-23T14:56:55;9;9;
79689;PMS5003;69156;55.932;-3.238;2023-04-23T14:59:20;9;9;
79689;PMS5003;69156;55.932;-3.238;2023-04-23T15:01:46;8;7;
79689;PMS5003;69156;55.932;-3.238;2023-04-23T15:04:11;12;12;
79689;PMS5003;69156;55.932;-3.238;2023-04-23T15:06:36;8;8;
79689;PMS5003;69156;55.932;-3.238;2023-04-23T15:09:02;9;9;
79689;PMS5003;69156;55.932;-3.238;2023-04-23T15:11:27;11;11;
79689;PMS5003;69156;55.932;-3.238;2023-04-23T15:13:54;9;9;
79689;PMS5003;69156;55.932;-3.238;2023-04-23T15:16:18;9;9;
79689;PMS5003;69156;55.932;-3.238;2023-04-23T15:18:42;5;5;
79689;PMS5003;69156;55.932;-3.238;2023-04-23T15:21:08;6;6;
79689;PMS5003;69156;55.932;-3.238;2023-04-23T15:23:33;4;4;
79689;PMS5003;69156;55.932;-3.238;2023-04-23T15:25:58;7;6;
79689;PMS5003;69156;55.932;-3.238;2023-04-23T15:28:24;4;4;
79689;PMS5003;69156;55.932;-3.238;2023-04-23T15:30:49;5;5;
79689;PMS5003;69156;55.932;-3.238;2023-04-23T15:33:14;5;5;
79689;PMS5003;69156;55.932;-3.238;2023-04-23T15:35:40;3;3;
79689;PMS5003;69156;55.932;-3.238;2023-04-23T15:38:06;4;4;
79689;PMS5003;69156;55.932;-3.238;2023-04-23T15:40:31;4;4;
79689;PMS5003;69156;55.932;-3.238;2023-04-23T15:42:57;3;3;
79689;PMS5003;69156;55.932;-3.238;2023-04-23T15:45:22;3;3;
79689;PMS5003;69156;55.932;-3.238;2023-04-23T15:47:48;3;3;
79689;PMS5003;69156;55.932;-3.238;2023-04-23T15:50:12;3;3;
79689;PMS5003;69156;55.932;-3.238;2023-04-23T15:52:37;3;3;
79689;PMS5003;69156;55.932;-3.238;2023-04-23T15:55:03;2;2;
79689;PMS5003;69156;55.932;-3.238;2023-04-23T15:57:28;4;4;
79689;PMS5003;69156;55.932;-3.238;2023-04-23T15:59:53;3;3;
79689;PMS5003;69156;55.932;-3.238;2023-04-23T16:02:19;3;3;
79689;PMS5003;69156;55.932;-3.238;2023-04-23T16:04:44;4;3;
79689;PMS5003;69156;55.932;-3.238;2023-04-23T16:07:10;4;4;
79689;PMS5003;69156;55.932;-3.238;2023-04-23T16:09:35;3;3;
79689;PMS5003;69156;55.932;-3.238;2023-04-23T16:12:00;4;4;
79689;PMS5003;69156;55.932;-3.238;2023-04-23T16:14:25;5;5;
79689;PMS5003;69156;55.932;-3.238;2023-04-23T16:16:50;4;4;
79689;PMS5003;69156;55.932;-3.238;2023-04-23T16:19:16;3;3;
79689;PMS5003;69156;55.932;-3.238;2023-04-23T16:21:41;4;4;
79689;PMS5003;69156;55.932;-3.238;2023-04-23T16:24:06;4;4;
79689;PMS5003;69156;55.932;-3.238;2023-04-23T16:26:31;4;4;
79689;PMS5003;69156;55.932;-3.238;2023-04-23T16:28:56;5;4;
79689;PMS5003;69156;55.932;-3.238;2023-04-23T16:31:22;3;3;
79689;PMS5003;69156;55.932;-3.238;2023-04-23T16:33:47;4;4;
79689;PMS5003;69156;55.932;-3.238;2023-04-23T16:36:13;6;6;
79689;PMS5003;69156;55.932;-3.238;2023-04-23T16:38:38;5;5;
79689;PMS5003;69156;55.932;-3.238;2023-04-23T16:41:04;4;4;